Time;durP1;ratioP1;P1;durP2;ratioP2;P2;SDS_P1;SDS_P2;PMS_P1;PMS_P2;Temp;Humidity;BMP_temperature;BMP_pressure;BME280_temperature;BME280_humidity;BME280_pressure;Samples;Min_cycle;Max_cycle;Signal;HPM_P1;HPM_P2
2022/02/28 00:00:27;;;;;;;1.40;1.30;;;26.10;50.10;;;;;;5032936;28;20458;-83
2022/02/28 00:02:54;;;;;;;1.43;1.33;;;26.20;50.20;;;;;;5032912;28;20455;-83
2022/02/28 00:05:20;;;;;;;1.50;1.40;;;26.20;50.30;;;;;;5032953;28;20786;-83
2022/02/28 00:07:49;;;;;;;1.53;1.30;;;26.10;50.10;;;;;;5032902;28;20941;-83
2022/02/28 00:10:17;;;;;;;1.30;1.20;;;26.10;50.10;;;;;;5032953;28;20454;-83
2022/02/28 00:12:44;;;;;;;1.30;1.10;;;26.10;50.10;;;;;;5032813;28;20541;-83
2022/02/28 00:15:13;;;;;;;1.57;1.47;;;26.10;50.10;;;;;;5032771;28;20442;-83
2022/02/28 00:17:41;;;;;;;1.50;1.40;;;26.10;50.10;;;;;;5032750;28;20446;-83
2022/02/28 00:20:11;;;;;;;1.20;1.10;;;26.20;50.20;;;;;;5032580;28;20443;-83
2022/02/28 00:22:38;;;;;;;1.53;1.30;;;26.10;50.10;;;;;;5032746;28;20819;-83
2022/02/28 00:25:07;;;;;;;0.97;0.80;;;26.10;50.10;;;;;;5032628;28;20459;-83
2022/02/28 00:27:35;;;;;;;1.27;1.17;;;26.10;50.10;;;;;;5032852;28;20448;-84
2022/02/28 00:30:01;;;;;;;1.50;1.40;;;26.00;50.00;;;;;;5032699;28;20797;-86
2022/02/28 00:32:28;;;;;;;1.97;1.30;;;26.10;50.00;;;;;;5032470;28;20487;-83
2022/02/28 00:34:56;;;;;;;1.20;1.07;;;26.00;50.00;;;;;;5032541;28;20783;-83
2022/02/28 00:37:23;;;;;;;1.10;1.00;;;26.00;50.00;;;;;;5032605;28;20445;-83
2022/02/28 00:39:51;;;;;;;1.20;1.10;;;26.00;50.00;;;;;;5032652;28;20802;-84
2022/02/28 00:42:17;;;;;;;1.20;1.10;;;26.00;50.00;;;;;;5032644;28;20484;-83
2022/02/28 00:44:44;;;;;;;1.27;1.17;;;26.00;50.00;;;;;;5032634;28;20786;-83
2022/02/28 00:47:11;;;;;;;1.63;1.40;;;26.00;50.00;;;;;;5035845;28;20454;-86
2022/02/28 00:49:38;;;;;;;1.40;1.00;;;26.00;50.00;;;;;;5036177;28;20442;-83
2022/02/28 00:52:07;;;;;;;1.30;1.20;;;26.00;50.00;;;;;;5036155;28;20486;-83
2022/02/28 00:54:33;;;;;;;1.50;1.40;;;26.00;50.00;;;;;;5035855;28;20466;-83
2022/02/28 00:57:00;;;;;;;1.13;1.03;;;26.00;50.00;;;;;;5036188;28;20434;-83
2022/02/28 00:59:27;;;;;;;1.30;1.17;;;26.10;50.00;;;;;;5035945;28;20438;-83
2022/02/28 01:01:54;;;;;;;1.77;1.67;;;26.00;49.90;;;;;;5035966;28;20810;-83
2022/02/28 01:04:21;;;;;;;1.30;1.10;;;26.00;49.90;;;;;;5035871;28;20440;-83
2022/02/28 01:06:48;;;;;;;1.40;1.30;;;26.10;50.00;;;;;;5036026;28;20767;-83
2022/02/28 01:09:16;;;;;;;1.30;1.10;;;26.00;50.00;;;;;;5035799;28;20439;-83
2022/02/28 01:11:43;;;;;;;1.53;1.10;;;26.00;49.90;;;;;;5035376;28;20478;-83
2022/02/28 01:14:10;;;;;;;1.47;1.37;;;25.90;49.90;;;;;;5035249;28;20945;-83
2022/02/28 01:16:37;;;;;;;1.40;1.30;;;25.90;49.90;;;;;;5035755;28;20448;-83
2022/02/28 01:19:04;;;;;;;1.40;1.30;;;25.90;50.00;;;;;;5035528;28;20447;-84
2022/02/28 01:21:31;;;;;;;1.17;1.03;;;25.90;49.90;;;;;;5035654;28;20801;-83
2022/02/28 01:23:58;;;;;;;1.60;1.50;;;25.90;49.80;;;;;;5035466;28;20937;-83
2022/02/28 01:26:26;;;;;;;1.40;1.30;;;25.80;49.80;;;;;;5035469;28;20458;-83
2022/02/28 01:28:53;;;;;;;1.50;1.10;;;25.90;49.90;;;;;;5035482;28;20443;-83
2022/02/28 01:31:20;;;;;;;1.30;1.20;;;25.90;49.80;;;;;;5035525;28;20446;-86
2022/02/28 01:33:46;;;;;;;1.40;1.30;;;25.90;49.80;;;;;;5035192;28;20843;-85
2022/02/28 01:36:13;;;;;;;1.20;1.10;;;25.90;49.80;;;;;;5035360;28;20442;-83
2022/02/28 01:38:40;;;;;;;1.40;1.30;;;25.90;49.80;;;;;;5035240;28;20800;-83
2022/02/28 01:41:07;;;;;;;1.30;1.20;;;25.90;49.70;;;;;;5035319;28;20438;-83
2022/02/28 01:43:35;;;;;;;1.40;1.20;;;25.90;49.70;;;;;;5035231;28;20952;-83
2022/02/28 01:46:02;;;;;;;1.47;1.37;;;25.80;49.60;;;;;;5035130;28;20469;-83
2022/02/28 01:48:28;;;;;;;1.50;1.40;;;25.80;49.70;;;;;;5035064;28;20453;-83
2022/02/28 01:50:55;;;;;;;1.23;1.10;;;25.80;49.70;;;;;;5034957;28;20438;-83
2022/02/28 01:53:22;;;;;;;1.60;1.30;;;25.80;49.70;;;;;;5034982;28;20512;-83
2022/02/28 01:55:49;;;;;;;1.40;1.30;;;25.80;49.60;;;;;;5034554;28;20478;-83
2022/02/28 01:58:16;;;;;;;1.40;1.30;;;25.80;49.60;;;;;;5034821;28;20969;-83
2022/02/28 02:00:45;;;;;;;1.43;1.33;;;25.80;49.60;;;;;;5034874;28;20505;-83
2022/02/28 02:03:11;;;;;;;1.50;1.40;;;25.80;49.60;;;;;;5034883;28;20446;-83
2022/02/28 02:05:38;;;;;;;1.40;1.20;;;25.80;49.60;;;;;;5034874;28;20441;-83
2022/02/28 02:08:07;;;;;;;1.53;1.43;;;25.80;49.60;;;;;;5034116;28;20445;-83
2022/02/28 02:10:34;;;;;;;1.57;1.47;;;25.80;49.60;;;;;;5034650;28;20849;-87
2022/02/28 02:13:02;;;;;;;1.43;1.33;;;25.80;49.60;;;;;;5034170;28;20513;-85
2022/02/28 02:15:29;;;;;;;1.63;1.30;;;25.80;49.50;;;;;;5034592;28;20450;-83
2022/02/28 02:17:59;;;;;;;1.50;1.40;;;25.90;49.60;;;;;;5034575;28;20453;-83
2022/02/28 02:20:35;;;;;;;2.00;1.60;;;25.80;49.50;;;;;;5034455;28;20949;-83
2022/02/28 02:23:04;;;;;;;1.43;1.33;;;25.80;49.50;;;;;;5034534;28;20438;-83
2022/02/28 02:25:30;;;;;;;1.50;1.40;;;25.80;49.50;;;;;;5034235;28;20467;-83
2022/02/28 02:27:57;;;;;;;1.57;1.47;;;25.80;49.50;;;;;;5034347;28;20446;-83
2022/02/28 02:30:24;;;;;;;1.80;1.40;;;25.70;49.50;;;;;;5034344;28;20435;-82
2022/02/28 02:32:51;;;;;;;2.10;1.67;;;25.70;49.50;;;;;;5033990;28;21005;-83
2022/02/28 02:35:19;;;;;;;1.70;1.40;;;25.70;49.50;;;;;;5034169;28;20450;-83
2022/02/28 02:37:47;;;;;;;1.50;1.30;;;25.70;49.40;;;;;;5034177;28;20446;-83
2022/02/28 02:40:14;;;;;;;1.60;1.50;;;25.70;49.30;;;;;;5034149;28;20466;-83
2022/02/28 02:42:42;;;;;;;1.73;1.63;;;25.70;49.40;;;;;;5034065;28;20435;-83
2022/02/28 02:45:09;;;;;;;1.90;1.63;;;25.70;49.50;;;;;;5034112;28;20941;-83
2022/02/28 02:47:36;;;;;;;1.30;1.20;;;25.70;49.40;;;;;;5034017;28;20439;-83
2022/02/28 02:50:04;;;;;;;1.37;1.27;;;25.70;49.50;;;;;;5033919;28;20449;-83
2022/02/28 02:52:31;;;;;;;1.57;1.47;;;25.70;49.40;;;;;;5033665;28;20505;-83
2022/02/28 02:54:59;;;;;;;1.73;1.43;;;25.70;49.50;;;;;;5033585;28;20501;-83
2022/02/28 02:57:26;;;;;;;1.40;1.30;;;25.70;49.40;;;;;;5033858;28;20446;-84
2022/02/28 02:59:53;;;;;;;1.63;1.53;;;25.70;49.40;;;;;;5033841;28;20439;-83
2022/02/28 03:02:20;;;;;;;1.50;1.40;;;25.60;49.90;;;;;;5033732;28;20450;-83
2022/02/28 03:04:46;;;;;;;2.00;1.80;;;25.70;49.40;;;;;;5033748;28;20446;-83
2022/02/28 03:07:17;;;;;;;1.33;1.23;;;25.60;49.30;;;;;;5033631;28;20442;-83
2022/02/28 03:09:44;;;;;;;1.57;1.47;;;25.70;49.40;;;;;;5033015;28;20435;-83
2022/02/28 03:12:13;;;;;;;1.33;1.23;;;25.60;49.40;;;;;;5033414;28;20442;-83
2022/02/28 03:14:40;;;;;;;1.43;1.33;;;25.60;49.30;;;;;;5033613;28;20446;-83
2022/02/28 03:17:07;;;;;;;1.90;1.80;;;25.60;49.30;;;;;;5033470;28;20514;-83
2022/02/28 03:19:34;;;;;;;2.03;1.80;;;25.60;49.30;;;;;;5033353;28;20521;-83
2022/02/28 03:22:01;;;;;;;1.93;1.83;;;25.60;49.30;;;;;;5033357;28;20465;-83
2022/02/28 03:24:28;;;;;;;1.70;1.50;;;25.70;49.40;;;;;;5033290;28;20445;-83
2022/02/28 03:26:54;;;;;;;2.00;1.60;;;25.60;49.20;;;;;;5033442;28;20453;-83
2022/02/28 03:29:22;;;;;;;1.77;1.67;;;25.60;49.30;;;;;;5033239;28;20446;-83
2022/02/28 03:31:49;;;;;;;1.50;1.30;;;25.60;49.30;;;;;;5033089;28;20451;-83
2022/02/28 03:34:16;;;;;;;1.53;1.43;;;25.60;49.30;;;;;;5033279;28;20486;-86
2022/02/28 03:36:43;;;;;;;2.10;1.50;;;25.50;49.30;;;;;;5033258;28;20465;-83
2022/02/28 03:39:10;;;;;;;1.50;1.40;;;25.60;49.30;;;;;;5033169;28;20454;-83
2022/02/28 03:41:36;;;;;;;1.90;1.80;;;25.50;49.20;;;;;;5033172;28;20441;-87
2022/02/28 03:44:03;;;;;;;1.80;1.70;;;25.60;49.30;;;;;;5033034;28;20435;-83
2022/02/28 03:46:32;;;;;;;1.87;1.77;;;25.60;49.30;;;;;;5033141;28;20435;-83
2022/02/28 03:48:59;;;;;;;1.60;1.50;;;25.50;49.20;;;;;;5033056;28;20438;-83
2022/02/28 03:51:25;;;;;;;1.70;1.50;;;25.50;49.20;;;;;;5033082;28;20489;-83
2022/02/28 03:53:52;;;;;;;1.80;1.70;;;25.50;49.30;;;;;;5032641;28;20821;-83
2022/02/28 03:56:19;;;;;;;1.60;1.50;;;25.60;49.40;;;;;;5033050;28;20469;-83
2022/02/28 03:58:46;;;;;;;1.60;1.50;;;25.70;49.40;;;;;;5033052;28;20438;-83
2022/02/28 04:01:12;;;;;;;1.77;1.67;;;25.50;49.20;;;;;;5033073;28;20450;-83
2022/02/28 04:03:41;;;;;;;2.13;1.50;;;25.50;49.20;;;;;;5032956;28;20438;-83
2022/02/28 04:06:08;;;;;;;1.57;1.47;;;25.50;49.20;;;;;;5032934;28;20442;-83
2022/02/28 04:08:35;;;;;;;1.80;1.70;;;25.50;49.20;;;;;;5032847;28;20443;-83
2022/02/28 04:11:01;;;;;;;1.60;1.50;;;25.50;49.20;;;;;;5032886;28;20449;-83
2022/02/28 04:13:28;;;;;;;1.93;1.80;;;25.50;49.20;;;;;;5032632;28;20486;-82
2022/02/28 04:15:55;;;;;;;1.70;1.60;;;25.50;49.30;;;;;;5032870;28;20451;-83
2022/02/28 04:18:22;;;;;;;1.50;1.40;;;25.50;49.30;;;;;;5032833;28;20959;-82
2022/02/28 04:20:50;;;;;;;1.80;1.70;;;25.40;49.20;;;;;;5034122;28;20449;-83
2022/02/28 04:23:17;;;;;;;2.10;1.90;;;25.40;49.10;;;;;;5036685;28;20809;-82
2022/02/28 04:25:44;;;;;;;1.80;1.70;;;25.40;49.20;;;;;;5036626;28;20526;-83
2022/02/28 04:28:11;;;;;;;1.63;1.40;;;25.40;49.20;;;;;;5036689;28;20937;-83
2022/02/28 04:30:38;;;;;;;1.60;1.50;;;25.40;49.20;;;;;;5036614;28;20465;-82
2022/02/28 04:33:05;;;;;;;1.70;1.60;;;25.40;49.30;;;;;;5036373;28;20490;-83
2022/02/28 04:35:32;;;;;;;1.80;1.70;;;25.40;49.20;;;;;;5036492;28;20438;-85
2022/02/28 04:38:03;;;;;;;2.60;1.73;;;25.40;49.10;;;;;;5036668;28;20778;-83
2022/02/28 04:40:30;;;;;;;1.50;1.40;;;25.40;49.10;;;;;;5036478;28;20539;-83
2022/02/28 04:42:56;;;;;;;1.60;1.50;;;25.40;49.10;;;;;;5036435;28;20454;-83
2022/02/28 04:45:23;;;;;;;1.70;1.60;;;25.40;49.20;;;;;;5036312;28;20438;-87
2022/02/28 04:47:50;;;;;;;1.60;1.50;;;25.40;49.10;;;;;;5036195;28;20442;-87
2022/02/28 04:50:17;;;;;;;1.90;1.80;;;25.40;49.20;;;;;;5036095;28;20443;-83
2022/02/28 04:52:44;;;;;;;1.87;1.77;;;25.40;49.20;;;;;;5035992;28;20446;-87
2022/02/28 04:55:12;;;;;;;1.73;1.50;;;25.40;49.20;;;;;;5035845;28;20470;-83
2022/02/28 04:57:40;;;;;;;1.70;1.60;;;25.40;49.50;;;;;;5036137;28;20442;-83
2022/02/28 05:00:08;;;;;;;1.60;1.50;;;25.40;49.10;;;;;;5036019;28;20458;-83
2022/02/28 05:02:34;;;;;;;1.60;1.50;;;25.30;49.10;;;;;;5035876;28;20438;-83
2022/02/28 05:05:03;;;;;;;1.63;1.53;;;25.40;49.10;;;;;;5036016;28;20438;-84
2022/02/28 05:07:30;;;;;;;1.80;1.70;;;25.30;49.10;;;;;;5036012;28;20446;-83
2022/02/28 05:09:57;;;;;;;1.60;1.50;;;25.50;48.90;;;;;;5035802;28;20530;-83
2022/02/28 05:12:25;;;;;;;2.33;2.13;;;25.30;49.00;;;;;;5035718;28;20452;-82
2022/02/28 05:14:52;;;;;;;1.60;1.50;;;25.30;49.10;;;;;;5035714;28;20875;-83
2022/02/28 05:17:19;;;;;;;1.97;1.87;;;25.30;49.10;;;;;;5035562;28;20862;-83
2022/02/28 05:19:46;;;;;;;2.10;2.00;;;25.30;49.10;;;;;;5035355;28;20957;-85
2022/02/28 05:22:13;;;;;;;1.90;1.63;;;25.30;49.00;;;;;;5035503;28;20437;-85
2022/02/28 05:24:39;;;;;;;2.30;2.10;;;25.30;49.10;;;;;;5035305;28;20462;-83
2022/02/28 05:27:09;;;;;;;1.60;1.50;;;25.20;49.00;;;;;;5035600;28;20443;-82
2022/02/28 05:29:37;;;;;;;1.63;1.53;;;25.20;49.00;;;;;;5035431;28;20466;-85
2022/02/28 05:32:05;;;;;;;1.60;1.50;;;25.30;49.00;;;;;;5034884;28;20442;-86
2022/02/28 05:34:32;;;;;;;1.90;1.80;;;25.30;49.00;;;;;;5035332;28;20486;-82
2022/02/28 05:36:59;;;;;;;1.90;1.80;;;25.20;49.00;;;;;;5035519;28;20934;-82
2022/02/28 05:39:26;;;;;;;2.27;1.97;;;25.20;49.00;;;;;;5034970;28;20454;-83
2022/02/28 05:41:53;;;;;;;1.50;1.40;;;25.20;49.00;;;;;;5035222;28;20435;-85
2022/02/28 05:44:19;;;;;;;2.03;1.83;;;25.20;49.10;;;;;;5035226;28;20534;-82
2022/02/28 05:46:48;;;;;;;1.83;1.70;;;25.20;49.00;;;;;;5035189;28;20439;-82
2022/02/28 05:49:18;;;;;;;1.87;1.77;;;25.20;49.10;;;;;;5035038;28;20439;-83
2022/02/28 05:51:45;;;;;;;1.90;1.80;;;25.20;49.00;;;;;;5035070;28;20434;-84
2022/02/28 05:54:11;;;;;;;2.07;1.67;;;25.20;49.10;;;;;;5034571;28;20498;-82
2022/02/28 05:56:38;;;;;;;1.50;1.40;;;25.20;49.10;;;;;;5034785;28;20454;-83
2022/02/28 05:59:07;;;;;;;1.67;1.57;;;25.20;49.10;;;;;;5035008;28;20457;-82
2022/02/28 06:01:34;;;;;;;2.10;1.90;;;25.20;49.00;;;;;;5034885;28;20816;-83
2022/02/28 06:04:02;;;;;;;1.83;1.73;;;25.20;49.00;;;;;;5034949;28;20446;-84
2022/02/28 06:06:29;;;;;;;1.50;1.40;;;25.20;49.00;;;;;;5034879;28;20482;-83
2022/02/28 06:08:56;;;;;;;1.80;1.70;;;25.20;49.00;;;;;;5034630;28;20450;-85
2022/02/28 06:11:23;;;;;;;1.70;1.60;;;25.10;49.00;;;;;;5034700;28;20953;-83
2022/02/28 06:13:50;;;;;;;1.80;1.70;;;25.20;49.00;;;;;;5034356;28;20486;-84
2022/02/28 06:16:16;;;;;;;2.30;2.10;;;25.10;49.00;;;;;;5034614;28;20781;-85
2022/02/28 06:18:44;;;;;;;1.77;1.67;;;25.10;49.00;;;;;;5034352;28;20450;-83
2022/02/28 06:21:12;;;;;;;1.87;1.77;;;25.10;48.90;;;;;;5034351;28;20439;-83
2022/02/28 06:23:39;;;;;;;2.03;1.83;;;25.10;48.90;;;;;;5034066;28;20457;-86
2022/02/28 06:26:06;;;;;;;2.07;1.97;;;25.20;48.80;;;;;;5034281;28;20454;-85
2022/02/28 06:28:33;;;;;;;1.90;1.80;;;25.30;49.40;;;;;;5034477;28;20989;-86
2022/02/28 06:30:59;;;;;;;1.70;1.60;;;25.30;48.70;;;;;;5034417;28;20565;-82
2022/02/28 06:33:26;;;;;;;2.07;1.93;;;25.30;48.80;;;;;;5034446;28;20490;-83
2022/02/28 06:35:53;;;;;;;2.03;1.93;;;25.40;48.70;;;;;;5034422;28;20445;-83
2022/02/28 06:38:22;;;;;;;2.27;2.07;;;25.40;48.80;;;;;;5034600;28;20434;-89
2022/02/28 06:40:50;;;;;;;2.13;2.03;;;25.40;48.60;;;;;;5041284;28;20431;-87
2022/02/28 06:43:20;;;;;;;2.03;1.93;;;25.30;48.60;;;;;;5039519;28;20435;-84
2022/02/28 06:45:48;;;;;;;1.90;1.80;;;25.40;48.60;;;;;;5043247;28;20446;-84
2022/02/28 06:48:15;;;;;;;3.07;2.40;;;25.40;48.70;;;;;;5036986;28;20443;-88
2022/02/28 06:50:42;;;;;;;2.20;2.10;;;25.40;48.70;;;;;;5054268;28;20920;-87
2022/02/28 06:53:10;;;;;;;1.60;1.50;;;25.40;48.50;;;;;;5053820;28;20477;-84
2022/02/28 06:55:40;;;;;;;1.87;1.77;;;25.40;49.00;;;;;;5053572;28;20481;-84
2022/02/28 06:58:07;;;;;;;1.80;1.70;;;25.40;48.80;;;;;;5053918;28;20499;-83
2022/02/28 07:00:34;;;;;;;2.07;1.87;;;25.40;48.90;;;;;;5054146;28;20927;-87
2022/02/28 07:03:00;;;;;;;2.00;1.90;;;25.40;49.00;;;;;;5053742;28;20438;-83
2022/02/28 07:05:27;;;;;;;1.90;1.80;;;25.40;49.00;;;;;;5054179;28;20461;-83
2022/02/28 07:07:54;;;;;;;2.00;1.90;;;25.50;49.10;;;;;;5053954;28;20441;-83
2022/02/28 07:10:22;;;;;;;1.60;1.50;;;25.40;49.10;;;;;;5053301;28;20445;-83
2022/02/28 07:12:51;;;;;;;2.20;2.00;;;25.40;49.30;;;;;;5053642;28;20458;-83
2022/02/28 07:15:17;;;;;;;2.23;2.03;;;25.40;49.20;;;;;;5053586;28;20490;-83
2022/02/28 07:17:44;;;;;;;1.87;1.77;;;25.40;49.20;;;;;;5044590;28;20518;-83
2022/02/28 07:20:12;;;;;;;2.00;1.80;;;25.40;49.10;;;;;;5039273;28;20440;-83
2022/02/28 07:22:39;;;;;;;5.43;2.07;;;25.40;49.00;;;;;;5039609;28;20446;-92
2022/02/28 07:25:07;;;;;;;2.40;2.07;;;25.40;49.10;;;;;;5053918;28;20468;-86
2022/02/28 07:27:34;;;;;;;3.40;2.00;;;25.50;48.10;;;;;;5042050;28;20462;-86
2022/02/28 07:30:02;;;;;;;2.30;2.10;;;25.60;48.80;;;;;;5033401;28;20451;-86
2022/02/28 07:32:29;;;;;;;2.00;1.80;;;25.50;48.70;;;;;;5041662;28;20521;-86
2022/02/28 07:34:56;;;;;;;2.90;2.07;;;25.60;48.70;;;;;;5038587;28;20529;-86
2022/02/28 07:37:23;;;;;;;8.10;2.07;;;25.60;48.80;;;;;;5046954;28;20518;-83
2022/02/28 07:39:50;;;;;;;3.77;1.80;;;25.50;48.80;;;;;;5038274;28;20957;-83
2022/02/28 07:42:18;;;;;;;2.10;2.00;;;25.50;48.90;;;;;;5043886;28;20438;-83
2022/02/28 07:44:45;;;;;;;2.43;2.23;;;25.50;49.00;;;;;;5036971;28;20451;-87
2022/02/28 07:47:13;;;;;;;2.50;2.30;;;25.50;49.10;;;;;;5040762;28;20774;-83
2022/02/28 07:49:41;;;;;;;3.20;2.47;;;25.50;49.00;;;;;;5038996;28;20799;-87
2022/02/28 07:52:08;;;;;;;3.60;2.10;;;25.50;48.90;;;;;;5045477;28;20849;-84
2022/02/28 07:54:35;;;;;;;7.60;2.53;;;25.50;49.10;;;;;;5038738;28;20852;-83
2022/02/28 07:57:02;;;;;;;4.30;2.50;;;25.50;49.00;;;;;;5053763;28;20801;-87
2022/02/28 07:59:29;;;;;;;8.87;2.27;;;25.50;49.00;;;;;;5041774;28;20435;-83
2022/02/28 08:01:56;;;;;;;4.77;3.40;;;25.50;48.90;;;;;;5050827;28;20445;-83
2022/02/28 08:04:24;;;;;;;26.97;4.40;;;25.50;48.70;;;;;;5053529;28;20444;-86
2022/02/28 08:06:51;;;;;;;9.40;2.97;;;25.60;48.40;;;;;;5056210;28;20445;-83
2022/02/28 08:09:19;;;;;;;9.53;2.57;;;25.70;48.50;;;;;;5056036;28;20458;-83
2022/02/28 08:11:46;;;;;;;6.97;2.33;;;25.70;48.50;;;;;;5055750;28;20441;-83
2022/02/28 08:14:13;;;;;;;9.33;2.90;;;25.80;48.50;;;;;;5055826;28;20485;-87
2022/02/28 08:16:40;;;;;;;5.93;3.00;;;25.80;48.40;;;;;;5055745;28;20456;-83
2022/02/28 08:19:06;;;;;;;5.63;2.40;;;26.00;48.10;;;;;;5055861;28;20446;-83
2022/02/28 08:21:35;;;;;;;8.13;3.00;;;26.00;48.30;;;;;;5056870;28;20438;-83
2022/02/28 08:24:01;;;;;;;13.20;3.00;;;26.00;48.00;;;;;;5056340;28;20441;-83
2022/02/28 08:26:28;;;;;;;6.93;2.77;;;26.20;48.40;;;;;;5056746;28;20444;-86
2022/02/28 08:28:55;;;;;;;6.50;2.80;;;26.20;48.30;;;;;;5056659;28;20448;-87
2022/02/28 08:31:22;;;;;;;9.13;3.00;;;26.20;48.30;;;;;;5056300;28;20447;-87
2022/02/28 08:33:49;;;;;;;7.10;2.90;;;26.20;48.30;;;;;;5056247;28;20449;-83
2022/02/28 08:36:16;;;;;;;12.00;2.87;;;26.30;48.30;;;;;;5056672;28;20840;-83
2022/02/28 08:38:44;;;;;;;9.33;2.80;;;26.30;48.30;;;;;;5055959;28;20819;-87
2022/02/28 08:41:11;;;;;;;8.00;3.90;;;26.40;48.30;;;;;;5055188;28;20533;-83
2022/02/28 08:43:37;;;;;;;11.43;3.50;;;26.40;48.20;;;;;;5056434;28;20955;-86
2022/02/28 08:46:05;;;;;;;12.60;3.20;;;26.60;48.30;;;;;;5055681;28;20920;-83
2022/02/28 08:48:31;;;;;;;6.07;3.00;;;26.60;48.10;;;;;;5056103;28;20446;-83
2022/02/28 08:50:58;;;;;;;4.83;2.83;;;26.90;48.10;;;;;;5054989;28;20453;-83
2022/02/28 08:53:25;;;;;;;15.00;5.33;;;27.20;47.60;;;;;;5055329;28;20444;-88
2022/02/28 08:55:53;;;;;;;20.40;4.87;;;27.60;46.00;;;;;;5055443;28;20555;-83
2022/02/28 08:58:23;;;;;;;7.90;5.37;;;28.00;46.40;;;;;;5056481;28;20511;-86
2022/02/28 09:00:49;;;;;;;12.70;4.90;;;28.50;43.10;;;;;;5056110;28;20540;-87
2022/02/28 09:03:16;;;;;;;11.97;4.40;;;28.70;41.00;;;;;;5055694;28;20456;-83
2022/02/28 09:05:43;;;;;;;7.07;4.23;;;29.10;42.50;;;;;;5054616;28;20446;-86
2022/02/28 09:08:10;;;;;;;6.30;3.70;;;29.60;43.50;;;;;;5054743;28;20834;-84
2022/02/28 09:10:37;;;;;;;10.47;4.47;;;30.20;43.20;;;;;;5054819;28;20536;-83
2022/02/28 09:13:05;;;;;;;15.63;3.90;;;30.80;42.80;;;;;;5054766;28;20453;-88
2022/02/28 09:15:35;;;;;;;12.23;3.87;;;31.40;42.20;;;;;;5054416;28;20497;-82
2022/02/28 09:18:02;;;;;;;11.20;4.00;;;31.90;42.00;;;;;;5054607;28;20533;-86
2022/02/28 09:20:28;;;;;;;7.63;2.93;;;32.10;41.70;;;;;;5054451;28;20452;-82
2022/02/28 09:22:55;;;;;;;15.50;4.50;;;32.50;41.60;;;;;;5054389;28;20470;-85
2022/02/28 09:25:24;;;;;;;5.60;3.40;;;32.90;41.30;;;;;;5054306;28;20465;-82
2022/02/28 09:27:51;;;;;;;10.63;4.33;;;33.40;41.00;;;;;;5048152;28;20499;-84
2022/02/28 09:30:19;;;;;;;8.23;3.37;;;33.70;40.00;;;;;;5053424;28;21094;-84
2022/02/28 09:32:47;;;;;;;19.83;3.80;;;33.90;39.50;;;;;;5053836;28;20441;-84
2022/02/28 09:35:14;;;;;;;12.23;4.37;;;34.30;40.00;;;;;;5054267;28;20528;-84
2022/02/28 09:37:40;;;;;;;6.60;3.70;;;34.10;40.00;;;;;;5054997;28;20441;-84
2022/02/28 09:40:08;;;;;;;11.87;4.20;;;33.90;40.30;;;;;;5054886;28;20431;-84
2022/02/28 09:42:36;;;;;;;5.70;3.27;;;33.40;40.60;;;;;;5055084;28;20438;-88
2022/02/28 09:45:04;;;;;;;10.97;3.60;;;33.10;41.00;;;;;;5055175;28;20439;-84
2022/02/28 09:47:33;;;;;;;7.67;3.17;;;32.90;41.20;;;;;;5055483;28;20444;-81
2022/02/28 09:50:00;;;;;;;4.60;4.07;;;32.90;41.40;;;;;;5055553;28;20434;-87
2022/02/28 09:52:26;;;;;;;12.40;4.53;;;33.00;41.30;;;;;;5055026;28;20438;-85
2022/02/28 09:54:53;;;;;;;6.00;3.70;;;33.20;41.20;;;;;;5054730;28;20505;-83
2022/02/28 09:57:22;;;;;;;12.07;3.60;;;33.50;41.00;;;;;;5055182;28;20434;-84
2022/02/28 09:59:49;;;;;;;6.60;3.40;;;33.80;40.80;;;;;;5055016;28;20955;-89
2022/02/28 10:02:16;;;;;;;6.70;3.80;;;34.10;40.60;;;;;;5055073;28;20448;-83
2022/02/28 10:04:45;;;;;;;6.10;3.90;;;34.40;40.40;;;;;;5055097;28;20434;-84
2022/02/28 10:07:20;;;;;;;5.87;3.70;;;34.60;40.30;;;;;;5054949;28;20474;-84
2022/02/28 10:09:47;;;;;;;5.00;3.10;;;34.60;40.30;;;;;;5054828;28;20439;-84
2022/02/28 10:12:14;;;;;;;8.90;4.00;;;34.60;40.30;;;;;;5054803;28;20782;-88
2022/02/28 10:14:45;;;;;;;6.00;3.40;;;34.30;40.40;;;;;;5054714;28;20477;-84
2022/02/28 10:17:14;;;;;;;5.67;2.97;;;33.90;40.70;;;;;;5054823;28;20445;-84
2022/02/28 10:19:41;;;;;;;4.70;3.60;;;33.50;41.10;;;;;;5054767;28;20455;-85
2022/02/28 10:22:09;;;;;;;6.57;3.33;;;33.10;41.50;;;;;;5054433;28;20451;-86
2022/02/28 10:24:39;;;;;;;6.50;3.33;;;32.70;41.40;;;;;;5054711;28;20475;-85
2022/02/28 10:27:08;;;;;;;4.13;3.33;;;32.50;40.00;;;;;;5054563;28;20450;-85
2022/02/28 10:29:41;;;;;;;3.00;2.70;;;32.20;40.10;;;;;;5054556;28;20939;-83
2022/02/28 10:32:10;;;;;;;4.00;3.03;;;31.80;40.50;;;;;;5054974;28;20449;-84
2022/02/28 10:35:59;;;;;;;8.17;3.83;;;31.40;40.80;;;;;;5054534;28;20480;-81
2022/02/28 10:37:27;;;;;;;6.90;4.30;;;31.10;42.40;;;;;;5054269;28;20501;-88
2022/02/28 10:39:59;;;;;;;5.30;4.63;;;30.80;39.40;;;;;;5047857;28;20507;-87
2022/02/28 10:42:43;;;;;;;7.83;4.20;;;30.40;37.40;;;;;;5034431;28;20471;-83
2022/02/28 10:45:21;;;;;;;6.53;4.20;;;30.00;37.80;;;;;;5033377;28;20443;-85
2022/02/28 10:47:52;;;;;;;3.87;3.47;;;29.80;41.10;;;;;;5033940;28;20807;-83
2022/02/28 10:50:34;;;;;;;5.20;3.50;;;29.60;41.30;;;;;;5034579;28;20457;-83
2022/02/28 10:53:03;;;;;;;4.10;2.80;;;29.50;41.10;;;;;;5034292;28;20482;-85
2022/02/28 10:56:17;;;;;;;4.63;2.90;;;29.50;42.30;;;;;;5033485;28;20993;-85
2022/02/28 10:58:44;;;;;;;4.73;3.60;;;29.30;41.60;;;;;;5034519;28;20446;-88
2022/02/28 11:01:10;;;;;;;6.40;3.60;;;29.10;43.10;;;;;;5033893;28;20446;-84
2022/02/28 11:03:45;;;;;;;4.73;4.43;;;29.00;43.70;;;;;;5032839;28;20813;-85
2022/02/28 11:06:14;;;;;;;10.37;6.57;;;28.80;37.40;;;;;;5032520;28;20438;-86
2022/02/28 11:08:46;;;;;;;9.27;5.87;;;28.70;37.10;;;;;;5032529;28;20456;-83
2022/02/28 11:11:18;;;;;;;6.80;5.20;;;28.60;37.30;;;;;;5042956;28;20434;-83
2022/02/28 11:13:46;;;;;;;5.10;4.60;;;28.50;36.90;;;;;;5052581;28;20885;-82
2022/02/28 11:16:14;;;;;;;5.00;4.60;;;28.40;36.00;;;;;;5052769;28;20848;-83
2022/02/28 11:18:42;;;;;;;5.40;4.50;;;28.30;36.10;;;;;;5052382;28;20449;-83
2022/02/28 11:21:12;;;;;;;4.23;3.83;;;28.20;34.90;;;;;;5052547;28;20449;-83
2022/02/28 11:23:39;;;;;;;4.97;4.37;;;28.10;34.30;;;;;;5052575;28;20529;-87
2022/02/28 11:26:08;;;;;;;4.57;4.17;;;28.10;34.90;;;;;;5051726;28;20538;-87
2022/02/28 11:28:34;;;;;;;4.40;4.00;;;28.10;35.10;;;;;;5051662;28;20442;-83
2022/02/28 11:31:02;;;;;;;4.90;4.30;;;28.20;35.60;;;;;;5051148;28;20459;-83
2022/02/28 11:33:29;;;;;;;4.10;3.80;;;28.00;37.10;;;;;;5051987;28;20801;-83
2022/02/28 11:35:56;;;;;;;4.13;3.70;;;28.00;38.40;;;;;;5052445;28;20840;-83
2022/02/28 11:38:44;;;;;;;3.70;3.40;;;28.00;39.10;;;;;;5052596;28;20441;-83
2022/02/28 11:41:14;;;;;;;4.40;4.07;;;28.10;39.70;;;;;;5052403;28;20460;-85
2022/02/28 11:43:44;;;;;;;6.07;3.50;;;28.00;40.10;;;;;;5052971;28;20843;-84
2022/02/28 11:46:17;;;;;;;4.03;3.43;;;28.10;40.60;;;;;;5052847;28;20451;-82
2022/02/28 11:48:46;;;;;;;7.40;3.53;;;28.10;41.00;;;;;;5052867;28;20442;-84
2022/02/28 11:51:26;;;;;;;3.93;3.40;;;28.20;41.40;;;;;;5053180;28;20450;-82
2022/02/28 11:53:54;;;;;;;4.10;3.67;;;28.20;41.60;;;;;;5051656;28;20465;-85
2022/02/28 11:57:03;;;;;;;3.60;3.40;;;28.20;41.90;;;;;;5051648;28;20489;-83
2022/02/28 11:59:38;;;;;;;4.20;3.63;;;28.30;42.20;;;;;;5051601;28;20564;-83
2022/02/28 12:02:22;;;;;;;4.00;3.27;;;28.30;42.60;;;;;;5051807;28;20445;-84
2022/02/28 12:04:48;;;;;;;3.40;3.20;;;28.30;42.80;;;;;;5051949;28;20499;-83
2022/02/28 12:07:30;;;;;;;8.00;3.53;;;28.30;43.00;;;;;;5052099;28;20441;-83
2022/02/28 12:10:17;;;;;;;3.30;3.00;;;28.40;43.20;;;;;;5052633;28;20509;-83
2022/02/28 12:12:58;;;;;;;3.63;3.43;;;28.40;43.40;;;;;;5046651;28;20531;-83
2022/02/28 12:15:25;;;;;;;3.90;3.30;;;28.40;43.70;;;;;;5051786;28;20477;-86
2022/02/28 12:17:59;;;;;;;3.20;2.93;;;28.50;43.90;;;;;;5051536;28;20456;-86
2022/02/28 12:20:28;;;;;;;3.60;3.33;;;28.40;44.00;;;;;;5051743;28;20445;-83
2022/02/28 12:23:25;;;;;;;3.70;3.17;;;28.50;44.20;;;;;;5051766;28;20861;-84
2022/02/28 12:26:16;;;;;;;3.57;3.27;;;28.50;44.40;;;;;;5051922;28;20850;-83
2022/02/28 12:28:50;;;;;;;4.40;3.00;;;28.50;44.50;;;;;;5052828;28;20464;-83
2022/02/28 12:31:36;;;;;;;3.80;3.50;;;28.70;44.80;;;;;;5053057;28;20532;-86
2022/02/28 12:34:07;;;;;;;4.30;3.90;;;28.50;44.10;;;;;;5052893;28;20445;-87
2022/02/28 12:36:34;;;;;;;3.50;3.30;;;28.50;40.40;;;;;;5052693;28;20527;-83
2022/02/28 12:39:06;;;;;;;3.70;3.40;;;28.50;40.00;;;;;;5052740;28;20438;-83
2022/02/28 12:41:36;;;;;;;3.20;3.00;;;28.40;41.90;;;;;;5053498;28;20821;-83
2022/02/28 12:44:06;;;;;;;4.53;3.00;;;28.40;42.40;;;;;;5056434;28;20525;-83
2022/02/28 12:46:38;;;;;;;3.87;3.23;;;28.40;42.70;;;;;;5056785;28;20449;-83
2022/02/28 12:49:05;;;;;;;5.57;3.30;;;28.40;43.00;;;;;;5056306;28;20792;-84
2022/02/28 12:51:34;;;;;;;4.10;3.77;;;28.50;43.40;;;;;;5056141;28;20441;-87